createdAt,value
2019-04-03T00:01:26.407Z,3.73
2019-04-03T00:03:56.054Z,4.50
2019-04-03T00:06:25.722Z,4.27
2019-04-03T00:08:55.434Z,3.97
2019-04-03T00:11:25.098Z,3.70
2019-04-03T00:13:54.735Z,3.90
2019-04-03T00:16:24.566Z,4.20
2019-04-03T00:18:54.225Z,3.50
2019-04-03T00:21:23.859Z,3.73
2019-04-03T00:23:53.530Z,4.07
2019-04-03T00:26:23.259Z,4.27
2019-04-03T00:28:52.960Z,4.00
2019-04-03T00:31:23.319Z,3.97
2019-04-03T00:33:53.897Z,3.63
2019-04-03T00:36:23.879Z,3.87
2019-04-03T00:38:54.367Z,4.00
2019-04-03T00:41:24.928Z,3.80
2019-04-03T00:43:55.061Z,4.10
2019-04-03T00:46:27.207Z,3.80
2019-04-03T00:48:56.934Z,4.07
2019-04-03T00:51:27.525Z,4.07
2019-04-03T00:53:58.172Z,4.37
2019-04-03T00:56:27.891Z,3.77
2019-04-03T00:58:57.502Z,4.17
2019-04-03T01:01:27.303Z,4.20
2019-04-03T01:03:58.817Z,4.37
2019-04-03T01:06:28.980Z,4.30
2019-04-03T01:08:59.512Z,3.53
2019-04-03T01:11:30.772Z,5.17
2019-04-03T01:14:01.639Z,4.80
2019-04-03T01:16:33.028Z,4.27
2019-04-03T01:19:05.190Z,4.70
2019-04-03T01:21:36.278Z,4.17
2019-04-03T01:24:07.656Z,5.33
2019-04-03T01:26:37.216Z,3.80
2019-04-03T01:29:07.105Z,4.53
2019-04-03T01:31:36.762Z,5.00
2019-04-03T01:34:06.430Z,4.77
2019-04-03T01:36:36.101Z,4.53
2019-04-03T01:39:07.745Z,4.83
2019-04-03T01:41:37.401Z,5.00
2019-04-03T01:44:07.061Z,5.10
2019-04-03T01:46:36.765Z,4.67
2019-04-03T01:49:06.403Z,5.13
2019-04-03T01:51:36.040Z,5.07
2019-04-03T01:54:05.704Z,5.20
2019-04-03T01:56:36.278Z,5.50
2019-04-03T01:59:06.871Z,4.60
2019-04-03T02:01:38.666Z,5.17
2019-04-03T02:04:12.129Z,5.27
2019-04-03T02:06:39.766Z,5.63
2019-04-03T02:09:10.699Z,5.60
2019-04-03T02:11:40.541Z,5.97
2019-04-03T02:14:10.189Z,5.33
2019-04-03T02:16:39.850Z,5.57
2019-04-03T02:19:09.498Z,6.40
2019-04-03T02:21:39.194Z,5.70
2019-04-03T02:24:10.396Z,5.40
2019-04-03T02:26:40.045Z,5.73
2019-04-03T02:29:09.705Z,5.40
2019-04-03T02:31:39.669Z,5.50
2019-04-03T02:34:09.467Z,5.83
2019-04-03T02:36:39.195Z,6.03
2019-04-03T02:39:08.854Z,5.27
2019-04-03T02:41:38.498Z,5.83
2019-04-03T02:44:08.461Z,6.33
2019-04-03T02:46:38.214Z,5.40
2019-04-03T02:49:10.242Z,6.03
2019-04-03T02:51:39.578Z,4.97
2019-04-03T02:54:18.582Z,6.53
2019-04-03T02:56:48.291Z,5.53
2019-04-03T02:59:18.033Z,5.00
2019-04-03T03:01:47.821Z,5.20
2019-04-03T03:04:20.443Z,4.93
2019-04-03T03:06:50.129Z,5.07
2019-04-03T03:09:20.134Z,5.43
2019-04-03T03:11:50.011Z,5.83
2019-04-03T03:14:20.227Z,4.97
2019-04-03T03:16:51.112Z,5.67
2019-04-03T03:19:22.843Z,5.87
2019-04-03T03:21:54.079Z,5.80
2019-04-03T03:24:24.430Z,5.77
2019-04-03T03:26:56.227Z,5.77
2019-04-03T03:29:27.546Z,5.70
2019-04-03T03:32:08.077Z,4.43
2019-04-03T03:34:47.581Z,6.10
2019-04-03T03:37:03.188Z,5.17
2019-04-03T03:39:34.340Z,5.77
2019-04-03T03:42:04.539Z,4.30
2019-04-03T03:44:35.966Z,4.77
2019-04-03T03:47:08.795Z,5.40
2019-04-03T03:49:38.879Z,5.37
2019-04-03T03:52:08.787Z,5.40
2019-04-03T03:54:38.922Z,6.53
2019-04-03T03:57:09.025Z,5.57
2019-04-03T03:59:39.982Z,5.10
2019-04-03T04:02:09.767Z,6.07
2019-04-03T04:04:39.667Z,5.27
2019-04-03T04:07:09.372Z,5.53
2019-04-03T04:09:39.024Z,5.00
2019-04-03T04:12:08.776Z,5.43
2019-04-03T04:14:38.752Z,5.10
2019-04-03T04:17:14.348Z,4.80
2019-04-03T04:19:40.226Z,5.27
2019-04-03T04:22:10.015Z,4.97
2019-04-03T04:24:39.673Z,5.60
2019-04-03T04:27:09.729Z,4.73
2019-04-03T04:29:41.813Z,5.10
2019-04-03T04:32:13.040Z,4.70
2019-04-03T04:34:43.038Z,5.37
2019-04-03T04:37:12.799Z,4.67
2019-04-03T04:39:42.448Z,4.87
2019-04-03T04:42:12.115Z,4.50
2019-04-03T04:44:41.781Z,4.60
2019-04-03T04:47:11.565Z,4.63
2019-04-03T04:49:42.740Z,5.57
2019-04-03T04:52:12.532Z,4.90
2019-04-03T04:54:44.036Z,4.50
2019-04-03T04:57:15.721Z,4.47
2019-04-03T04:59:45.509Z,4.60
2019-04-03T05:02:15.386Z,4.90
2019-04-03T05:04:45.113Z,4.07
2019-04-03T05:07:16.543Z,4.77
2019-04-03T05:09:45.604Z,4.67
2019-04-03T05:12:15.378Z,4.40
2019-04-03T05:14:45.034Z,4.67
2019-04-03T05:17:14.718Z,4.63
2019-04-03T05:19:44.598Z,4.60
2019-04-03T05:22:14.246Z,4.90
2019-04-03T05:24:44.033Z,4.63
2019-04-03T05:27:13.851Z,4.93
2019-04-03T05:29:43.541Z,4.77
2019-04-03T05:32:13.197Z,4.53
2019-04-03T05:34:44.092Z,4.20
2019-04-03T05:37:15.682Z,4.80
2019-04-03T05:39:45.349Z,4.60
2019-04-03T05:42:15.101Z,5.17
2019-04-03T05:44:44.845Z,4.50
2019-04-03T05:47:17.060Z,3.80
2019-04-03T05:49:47.296Z,4.93
2019-04-03T05:52:17.248Z,4.50
2019-04-03T05:54:46.902Z,4.57
2019-04-03T05:57:16.576Z,5.10
2019-04-03T05:59:59.078Z,5.50
2019-04-03T06:02:20.358Z,4.73
2019-04-03T06:04:49.079Z,5.00
2019-04-03T06:07:18.998Z,4.87
2019-04-03T06:09:48.880Z,5.07
2019-04-03T06:12:19.339Z,5.17
2019-04-03T06:14:50.226Z,5.20
2019-04-03T06:17:20.391Z,5.40
2019-04-03T06:19:50.018Z,5.40
2019-04-03T06:22:21.755Z,4.73
2019-04-03T06:24:55.334Z,4.83
2019-04-03T06:27:22.636Z,4.93
2019-04-03T06:29:55.098Z,4.77
2019-04-03T06:32:24.897Z,4.93
2019-04-03T06:34:54.682Z,5.53
2019-04-03T06:37:24.393Z,4.40
2019-04-03T06:39:54.010Z,5.07
2019-04-03T06:42:23.657Z,4.80
2019-04-03T06:44:54.069Z,5.17
2019-04-03T06:47:24.062Z,5.27
2019-04-03T06:49:55.712Z,5.90
2019-04-03T06:52:25.537Z,4.83
2019-04-03T06:54:55.207Z,5.30
2019-04-03T06:57:24.875Z,5.40
2019-04-03T06:59:54.542Z,5.30
2019-04-03T07:02:27.088Z,5.00
2019-04-03T07:04:55.623Z,4.80
2019-04-03T07:07:33.006Z,5.30
2019-04-03T07:09:57.201Z,4.70
2019-04-03T07:12:27.036Z,5.17
2019-04-03T07:14:56.763Z,5.43
2019-04-03T07:17:26.438Z,5.20
2019-04-03T07:19:56.320Z,5.27
2019-04-03T07:22:27.912Z,5.10
2019-04-03T07:24:57.468Z,5.03
2019-04-03T07:27:27.131Z,5.17
2019-04-03T07:29:57.068Z,5.50
2019-04-03T07:32:26.832Z,5.37
2019-04-03T07:34:56.667Z,5.30
2019-04-03T07:37:26.384Z,4.70
2019-04-03T07:39:58.664Z,5.60
2019-04-03T07:42:27.375Z,5.13
2019-04-03T07:44:57.023Z,5.30
2019-04-03T07:47:26.704Z,5.33
2019-04-03T07:49:56.475Z,5.53
2019-04-03T07:52:26.244Z,5.50
2019-04-03T07:54:57.095Z,5.37
2019-04-03T07:57:29.271Z,6.10
2019-04-03T07:59:58.756Z,6.17
2019-04-03T08:02:28.490Z,5.97
2019-04-03T08:05:00.704Z,5.40
2019-04-03T08:07:29.636Z,5.23
2019-04-03T08:09:59.429Z,5.77
2019-04-03T08:12:29.139Z,5.40
2019-04-03T08:14:59.160Z,5.37
2019-04-03T08:17:28.822Z,6.00
2019-04-03T08:19:58.527Z,6.10
2019-04-03T08:22:28.263Z,5.57
2019-04-03T08:24:57.974Z,5.50
2019-04-03T08:27:27.856Z,5.83
2019-04-03T08:29:57.955Z,5.53
2019-04-03T08:32:27.602Z,5.70
2019-04-03T08:34:57.246Z,6.37
2019-04-03T08:37:30.648Z,5.60
2019-04-03T08:39:58.950Z,5.23
2019-04-03T08:42:31.931Z,5.60
2019-04-03T08:45:00.162Z,5.40
2019-04-03T08:47:36.716Z,5.70
2019-04-03T08:50:06.107Z,6.33
2019-04-03T08:52:37.085Z,5.30
2019-04-03T08:55:07.582Z,5.77
2019-04-03T08:57:37.665Z,5.53
2019-04-03T09:00:08.727Z,6.17
2019-04-03T09:02:38.891Z,6.43
2019-04-03T09:05:08.789Z,6.50
2019-04-03T09:07:38.600Z,7.20
2019-04-03T09:10:09.487Z,5.37
2019-04-03T09:12:39.137Z,6.97
2019-04-03T09:15:10.618Z,6.43
2019-04-03T09:17:40.779Z,6.20
2019-04-03T09:20:12.610Z,6.83
2019-04-03T09:22:44.998Z,7.20
2019-04-03T09:25:15.355Z,6.40
2019-04-03T09:27:45.113Z,6.13
2019-04-03T09:30:16.180Z,6.57
2019-04-03T09:32:46.433Z,6.40
2019-04-03T09:35:16.339Z,6.23
2019-04-03T09:37:46.628Z,6.23
2019-04-03T09:40:17.703Z,6.37
2019-04-03T09:42:47.546Z,6.37
2019-04-03T09:45:17.316Z,6.33
2019-04-03T09:47:46.970Z,6.77
2019-04-03T09:50:16.726Z,6.23
2019-04-03T09:52:49.361Z,6.90
2019-04-03T09:55:17.734Z,6.53
2019-04-03T09:57:47.701Z,6.37
2019-04-03T10:00:19.365Z,6.80
2019-04-03T10:02:51.533Z,6.77
2019-04-03T10:05:20.664Z,6.17
2019-04-03T10:07:50.339Z,6.43
2019-04-03T10:10:20.339Z,6.83
2019-04-03T10:12:49.966Z,6.73
2019-04-03T10:15:19.827Z,6.60
2019-04-03T10:17:49.762Z,7.20
2019-04-03T10:20:19.754Z,6.87
2019-04-03T10:22:49.566Z,6.43
2019-04-03T10:25:19.419Z,7.10
2019-04-03T10:27:49.139Z,6.40
2019-04-03T10:30:21.553Z,7.17
2019-04-03T10:32:50.816Z,6.63
2019-04-03T10:35:20.592Z,6.53
2019-04-03T10:37:50.230Z,7.73
2019-04-03T10:40:19.965Z,7.30
2019-04-03T10:42:49.622Z,6.33
2019-04-03T10:45:20.761Z,7.13
2019-04-03T10:47:50.423Z,6.83
2019-04-03T10:50:20.563Z,7.13
2019-04-03T10:52:50.266Z,7.40
2019-04-03T10:55:20.243Z,7.80
2019-04-03T10:57:49.975Z,7.17
2019-04-03T11:00:19.943Z,7.60
2019-04-03T11:02:49.808Z,7.33
2019-04-03T11:05:19.687Z,7.57
2019-04-03T11:07:49.427Z,7.10
2019-04-03T11:10:19.557Z,7.37
2019-04-03T11:12:49.192Z,6.97
2019-04-03T11:15:19.105Z,7.40
2019-04-03T11:17:49.955Z,7.97
2019-04-03T11:20:20.568Z,7.43
2019-04-03T11:22:50.691Z,7.47
2019-04-03T11:25:21.676Z,6.80
2019-04-03T11:27:51.731Z,7.10
2019-04-03T11:30:24.586Z,7.23
2019-04-03T11:32:53.791Z,6.60
2019-04-03T11:35:23.769Z,7.43
2019-04-03T11:37:53.877Z,7.70
2019-04-03T11:40:25.362Z,7.90
2019-04-03T11:42:55.498Z,7.63
2019-04-03T11:45:25.234Z,7.07
2019-04-03T11:47:54.887Z,7.10
2019-04-03T11:50:25.392Z,8.17
2019-04-03T11:52:55.525Z,8.10
2019-04-03T11:55:25.154Z,8.63
2019-04-03T11:57:55.052Z,8.23
2019-04-03T12:00:29.110Z,7.70
2019-04-03T12:02:58.831Z,8.13
2019-04-03T12:05:28.445Z,8.03
2019-04-03T12:07:58.451Z,8.60
2019-04-03T12:10:28.224Z,7.43
2019-04-03T12:12:58.174Z,7.23
2019-04-03T12:15:27.984Z,8.20
2019-04-03T12:18:00.733Z,8.03
2019-04-03T12:20:28.914Z,7.80
2019-04-03T12:22:58.560Z,8.43
2019-04-03T12:25:28.404Z,8.07
2019-04-03T12:27:58.094Z,8.30
2019-04-03T12:30:28.063Z,8.33
2019-04-03T12:32:58.214Z,7.73
2019-04-03T12:35:27.924Z,8.03
2019-04-03T12:37:57.923Z,8.73
2019-04-03T12:40:28.015Z,8.73
2019-04-03T12:42:57.729Z,7.87
2019-04-03T12:45:27.497Z,9.73
2019-04-03T12:47:57.764Z,9.20
2019-04-03T12:50:28.249Z,8.40
2019-04-03T12:52:58.554Z,8.10
2019-04-03T12:55:28.193Z,9.30
2019-04-03T12:57:58.265Z,8.17
2019-04-03T13:00:28.362Z,7.87
2019-04-03T13:02:58.124Z,8.43
2019-04-03T13:05:27.784Z,8.70
2019-04-03T13:07:59.572Z,10.53
2019-04-03T13:10:40.291Z,9.17
2019-04-03T13:13:00.130Z,7.27
2019-04-03T13:15:29.778Z,9.30
2019-04-03T13:17:59.882Z,8.20
2019-04-03T13:20:29.934Z,8.47
2019-04-03T13:23:00.032Z,8.20
2019-04-03T13:25:29.678Z,7.87
2019-04-03T13:27:59.581Z,8.20
2019-04-03T13:30:29.286Z,7.93
2019-04-03T13:33:04.891Z,8.93
2019-04-03T13:35:30.350Z,8.57
2019-04-03T13:38:00.424Z,7.40
2019-04-03T13:40:30.333Z,9.20
2019-04-03T13:43:00.023Z,9.03
2019-04-03T13:45:31.134Z,8.53
2019-04-03T13:48:01.245Z,8.20
2019-04-03T13:50:31.017Z,8.23
2019-04-03T13:53:00.730Z,8.23
2019-04-03T13:55:33.819Z,7.70
2019-04-03T13:58:01.797Z,8.47
2019-04-03T14:00:32.850Z,8.07
2019-04-03T14:03:02.774Z,8.90
2019-04-03T14:05:33.252Z,9.40
2019-04-03T14:08:06.010Z,8.50
2019-04-03T14:10:35.281Z,8.30
2019-04-03T14:13:07.058Z,8.73
2019-04-03T14:15:36.846Z,8.70
2019-04-03T14:18:07.813Z,9.20
2019-04-03T14:20:37.870Z,8.57
2019-04-03T14:23:07.756Z,10.67
2019-04-03T14:25:38.710Z,8.30
2019-04-03T14:28:09.091Z,8.30
2019-04-03T14:30:38.807Z,8.30
2019-04-03T14:33:08.491Z,8.53
2019-04-03T14:35:49.343Z,8.43
2019-04-03T14:38:11.804Z,7.20
2019-04-03T14:40:41.336Z,8.10
2019-04-03T14:43:12.320Z,7.50
2019-04-03T14:45:44.477Z,7.73
2019-04-03T14:48:14.022Z,7.57
2019-04-03T14:50:44.267Z,8.07
2019-04-03T14:53:14.099Z,7.87
2019-04-03T14:55:49.153Z,7.37
2019-04-03T14:58:15.132Z,7.33
2019-04-03T15:00:48.545Z,7.47
2019-04-03T15:03:16.945Z,7.53
2019-04-03T15:05:47.013Z,7.83
2019-04-03T15:08:16.650Z,7.63
2019-04-03T15:10:46.439Z,7.50
2019-04-03T15:13:16.390Z,7.63
2019-04-03T15:15:46.070Z,7.60
2019-04-03T15:18:15.730Z,7.40
2019-04-03T15:20:46.752Z,7.20
2019-04-03T15:23:16.691Z,7.67
2019-04-03T15:25:47.901Z,7.57
2019-04-03T15:28:17.715Z,7.70
2019-04-03T15:30:47.371Z,7.70
2019-04-03T15:33:17.134Z,7.87
2019-04-03T15:35:47.071Z,7.63
2019-04-03T15:38:18.715Z,8.83
2019-04-03T15:40:48.124Z,8.90
2019-04-03T15:43:17.772Z,8.07
2019-04-03T15:45:47.729Z,8.40
2019-04-03T15:48:20.990Z,7.53
2019-04-03T15:50:48.802Z,7.63
2019-04-03T15:53:18.454Z,7.83
2019-04-03T15:55:48.198Z,7.67
2019-04-03T15:58:17.914Z,6.97
2019-04-03T16:00:47.571Z,8.33
2019-04-03T16:03:18.738Z,7.70
2019-04-03T16:05:48.723Z,7.07
2019-04-03T16:08:18.452Z,7.20
2019-04-03T16:10:48.492Z,7.73
2019-04-03T16:13:20.848Z,7.87
2019-04-03T16:15:50.022Z,7.93
2019-04-03T16:18:21.081Z,7.93
2019-04-03T16:20:50.920Z,7.73
2019-04-03T16:23:20.603Z,8.27
2019-04-03T16:25:50.438Z,8.63
2019-04-03T16:28:20.553Z,9.10
2019-04-03T16:30:53.109Z,8.37
2019-04-03T16:33:24.618Z,7.83
2019-04-03T16:35:53.801Z,8.87
2019-04-03T16:38:24.027Z,8.33
2019-04-03T16:40:54.350Z,9.10
2019-04-03T16:43:24.711Z,7.87
2019-04-03T16:45:54.796Z,9.20
2019-04-03T16:48:24.617Z,8.27
2019-04-03T16:50:54.446Z,8.00
2019-04-03T16:53:24.165Z,7.90
2019-04-03T16:55:53.995Z,7.27
2019-04-03T16:58:26.433Z,6.63
2019-04-03T17:00:55.195Z,7.13
2019-04-03T17:03:25.211Z,7.00
2019-04-03T17:05:56.489Z,7.03
2019-04-03T17:08:26.963Z,6.67
2019-04-03T17:10:57.297Z,6.87
2019-04-03T17:13:27.000Z,6.73
2019-04-03T17:15:56.642Z,6.80
2019-04-03T17:18:26.362Z,6.50
2019-04-03T17:20:56.921Z,6.07
2019-04-03T17:23:26.794Z,6.43
2019-04-03T17:25:56.833Z,6.00
2019-04-03T17:28:27.225Z,6.67
2019-04-03T17:30:57.358Z,6.23
2019-04-03T17:33:27.099Z,6.37
2019-04-03T17:35:56.782Z,6.60
2019-04-03T17:38:26.558Z,7.23
2019-04-03T17:40:56.190Z,6.90
2019-04-03T17:43:25.873Z,6.23
2019-04-03T17:45:55.527Z,5.70
2019-04-03T17:48:25.337Z,6.80
2019-04-03T17:50:55.038Z,6.00
2019-04-03T17:53:24.708Z,7.07
2019-04-03T17:55:54.462Z,6.80
2019-04-03T17:58:24.117Z,6.93
2019-04-03T18:00:53.766Z,6.30
2019-04-03T18:03:23.418Z,6.27
2019-04-03T18:05:53.130Z,6.33
2019-04-03T18:08:22.833Z,6.40
2019-04-03T18:10:52.475Z,6.43
2019-04-03T18:13:23.427Z,6.70
2019-04-03T18:15:53.740Z,6.20
2019-04-03T18:18:23.397Z,6.97
2019-04-03T18:20:53.115Z,6.77
2019-04-03T18:23:22.790Z,6.13
2019-04-03T18:25:52.460Z,6.07
2019-04-03T18:28:22.183Z,5.87
2019-04-03T18:30:51.842Z,6.43
2019-04-03T18:33:21.514Z,5.83
2019-04-03T18:35:51.261Z,7.12
2019-04-03T18:38:21.007Z,6.37
2019-04-03T18:40:50.923Z,6.67
2019-04-03T18:43:21.877Z,6.50
2019-04-03T18:45:51.905Z,6.50
2019-04-03T18:48:23.826Z,6.80
2019-04-03T18:50:53.494Z,6.30
2019-04-03T18:53:23.146Z,5.90
2019-04-03T18:55:52.803Z,6.17
2019-04-03T18:58:23.911Z,6.60
2019-04-03T19:00:53.834Z,6.10
2019-04-03T19:03:23.499Z,6.03
2019-04-03T19:05:53.136Z,6.10
2019-04-03T19:08:28.283Z,6.83
2019-04-03T19:11:02.198Z,6.37
2019-04-03T19:13:29.243Z,6.23
2019-04-03T19:16:01.896Z,6.27
2019-04-03T19:18:31.967Z,6.90
2019-04-03T19:21:01.614Z,6.70
2019-04-03T19:23:31.332Z,6.77
2019-04-03T19:26:01.048Z,7.53
2019-04-03T19:28:30.755Z,6.77
2019-04-03T19:31:00.379Z,7.30
2019-04-03T19:33:30.053Z,7.20
2019-04-03T19:35:59.797Z,8.07
2019-04-03T19:38:29.499Z,8.03
2019-04-03T19:40:59.136Z,8.50
2019-04-03T19:43:28.829Z,7.33
2019-04-03T19:45:58.503Z,9.17
2019-04-03T19:48:28.209Z,9.30
2019-04-03T19:50:57.914Z,8.20
2019-04-03T19:53:27.631Z,8.10
2019-04-03T19:55:57.286Z,7.60
2019-04-03T19:58:28.869Z,8.80
2019-04-03T20:00:58.333Z,8.73
2019-04-03T20:03:30.750Z,7.70
2019-04-03T20:06:00.453Z,6.80
2019-04-03T20:08:30.660Z,7.97
2019-04-03T20:11:00.345Z,8.00
2019-04-03T20:13:30.043Z,8.13
2019-04-03T20:15:59.793Z,7.17
2019-04-03T20:18:29.472Z,8.23
2019-04-03T20:20:59.171Z,7.77
2019-04-03T20:23:30.181Z,7.47
2019-04-03T20:26:00.074Z,8.03
2019-04-03T20:28:29.814Z,7.63
2019-04-03T20:30:59.950Z,7.00
2019-04-03T20:33:29.597Z,7.73
2019-04-03T20:35:59.281Z,7.20
2019-04-03T20:38:30.730Z,7.70
2019-04-03T20:41:02.898Z,7.60
2019-04-03T20:43:31.828Z,7.67
2019-04-03T20:46:01.462Z,7.50
2019-04-03T20:48:31.147Z,6.97
2019-04-03T20:51:00.815Z,7.53
2019-04-03T20:53:30.482Z,7.00
2019-04-03T20:56:00.142Z,6.67
2019-04-03T20:58:29.803Z,7.27
2019-04-03T21:01:06.916Z,6.60
2019-04-03T21:03:31.885Z,7.43
2019-04-03T21:06:01.519Z,7.77
2019-04-03T21:08:31.719Z,7.60
2019-04-03T21:11:02.390Z,6.67
2019-04-03T21:13:32.450Z,7.27
2019-04-03T21:16:02.140Z,7.93
2019-04-03T21:18:31.736Z,7.40
2019-04-03T21:21:01.667Z,6.90
2019-04-03T21:23:33.306Z,7.03
2019-04-03T21:26:02.831Z,7.40
2019-04-03T21:28:32.465Z,7.53
2019-04-03T21:31:02.064Z,7.37
2019-04-03T21:33:31.703Z,7.73
2019-04-03T21:36:01.395Z,7.60
2019-04-03T21:38:31.044Z,7.53
2019-04-03T21:41:00.715Z,7.93
2019-04-03T21:43:30.359Z,7.20
2019-04-03T21:46:01.052Z,8.77
2019-04-03T21:48:30.670Z,9.07
2019-04-03T21:51:00.354Z,8.10
2019-04-03T21:53:29.980Z,8.57
2019-04-03T21:56:01.783Z,8.50
2019-04-03T21:58:30.980Z,9.17
2019-04-03T22:01:21.261Z,8.60
2019-04-03T22:03:51.968Z,9.67
2019-04-03T22:06:22.200Z,8.23
2019-04-03T22:08:51.879Z,9.73
2019-04-03T22:11:21.509Z,8.47
2019-04-03T22:13:51.239Z,8.33
2019-04-03T22:16:20.880Z,9.20
2019-04-03T22:18:50.626Z,9.33
2019-04-03T22:21:20.235Z,9.50
2019-04-03T22:23:49.961Z,9.77
2019-04-03T22:26:19.635Z,9.20
2019-04-03T22:28:49.268Z,9.70
2019-04-03T22:31:18.887Z,9.77
2019-04-03T22:33:48.507Z,9.77
2019-04-03T22:36:18.123Z,8.80
2019-04-03T22:38:47.737Z,9.87
2019-04-03T22:41:17.356Z,9.50
2019-04-03T22:43:47.016Z,9.30
2019-04-03T22:46:16.696Z,8.90
2019-04-03T22:48:46.327Z,9.57
2019-04-03T22:51:15.974Z,10.07
2019-04-03T22:53:45.632Z,9.10
2019-04-03T22:56:16.855Z,9.70
2019-04-03T22:58:46.603Z,10.10
2019-04-03T23:01:16.235Z,9.23
2019-04-03T23:03:45.885Z,9.40
2019-04-03T23:06:16.856Z,10.50
2019-04-03T23:08:46.787Z,10.53
2019-04-03T23:11:16.471Z,10.50
2019-04-03T23:13:46.120Z,9.53
2019-04-03T23:16:15.728Z,9.33
2019-04-03T23:18:46.859Z,9.37
2019-04-03T23:21:16.655Z,9.43
2019-04-03T23:23:46.284Z,10.47
2019-04-03T23:26:16.751Z,9.60
2019-04-03T23:28:46.375Z,9.83
2019-04-03T23:31:15.996Z,9.87
2019-04-03T23:33:45.938Z,9.43
2019-04-03T23:36:17.003Z,9.70
2019-04-03T23:38:46.687Z,11.07
2019-04-03T23:41:16.304Z,10.33
2019-04-03T23:43:45.951Z,9.93
2019-04-03T23:46:15.596Z,9.47
2019-04-03T23:48:45.207Z,9.73
2019-04-03T23:51:22.967Z,9.03
2019-04-03T23:53:46.139Z,9.50
2019-04-03T23:56:15.748Z,10.10
2019-04-03T23:58:45.418Z,9.87
